createdAt,value
2019-05-19T00:00:48.175Z,1002.30
2019-05-19T00:01:48.168Z,1002.29
2019-05-19T00:02:48.211Z,1002.29
2019-05-19T00:03:48.144Z,1002.33
2019-05-19T00:04:48.131Z,1002.33
2019-05-19T00:05:48.127Z,1002.36
2019-05-19T00:06:48.131Z,1002.33
2019-05-19T00:07:48.099Z,1002.31
2019-05-19T00:08:48.089Z,1002.35
2019-05-19T00:09:48.077Z,1002.35
2019-05-19T00:10:48.067Z,1002.35
2019-05-19T00:11:48.056Z,1002.37
2019-05-19T00:12:48.052Z,1002.32
2019-05-19T00:13:48.053Z,1002.35
2019-05-19T00:14:48.024Z,1002.34
2019-05-19T00:15:48.014Z,1002.35
2019-05-19T00:16:48.002Z,1002.37
2019-05-19T00:17:47.993Z,1002.37
2019-05-19T00:18:47.986Z,1002.42
2019-05-19T00:19:47.971Z,1002.43
2019-05-19T00:20:47.970Z,1002.42
2019-05-19T00:21:47.955Z,1002.40
2019-05-19T00:22:47.940Z,1002.47
2019-05-19T00:23:47.928Z,1002.43
2019-05-19T00:24:47.917Z,1002.35
2019-05-19T00:25:47.910Z,1002.35
2019-05-19T00:26:47.894Z,1002.35
2019-05-19T00:27:47.885Z,1002.35
2019-05-19T00:28:47.874Z,1002.33
2019-05-19T00:29:47.863Z,1002.36
2019-05-19T00:30:47.856Z,1002.32
2019-05-19T00:31:47.876Z,1002.35
2019-05-19T00:32:47.830Z,1002.29
2019-05-19T00:33:47.820Z,1002.32
2019-05-19T00:34:47.826Z,1002.31
2019-05-19T00:35:47.799Z,1002.34
2019-05-19T00:36:47.791Z,1002.36
2019-05-19T00:37:47.775Z,1002.41
2019-05-19T00:38:47.771Z,1002.36
2019-05-19T00:39:47.754Z,1002.42
2019-05-19T00:40:47.746Z,1002.41
2019-05-19T00:41:47.732Z,1002.42
2019-05-19T00:42:47.728Z,1002.35
2019-05-19T00:43:47.714Z,1002.36
2019-05-19T00:44:47.700Z,1002.34
2019-05-19T00:45:47.689Z,1002.35
2019-05-19T00:46:47.685Z,1002.37
2019-05-19T00:47:47.669Z,1002.33
2019-05-19T00:48:47.663Z,1002.34
2019-05-19T00:49:47.645Z,1002.38
2019-05-19T00:50:47.639Z,1002.36
2019-05-19T00:51:47.623Z,1002.33
2019-05-19T00:52:47.615Z,1002.34
2019-05-19T00:53:47.605Z,1002.33
2019-05-19T00:54:47.596Z,1002.28
2019-05-19T00:55:47.581Z,1002.30
2019-05-19T00:56:47.571Z,1002.27
2019-05-19T00:57:47.560Z,1002.30
2019-05-19T00:58:47.648Z,1002.28
2019-05-19T00:59:47.538Z,1002.30
2019-05-19T01:00:47.528Z,1002.23
2019-05-19T01:01:47.527Z,1002.30
2019-05-19T01:02:47.510Z,1002.24
2019-05-19T01:03:47.496Z,1002.26
2019-05-19T01:04:47.492Z,1002.26
2019-05-19T01:05:47.475Z,1002.21
2019-05-19T01:06:47.483Z,1002.24
2019-05-19T01:07:47.459Z,1002.23
2019-05-19T01:08:47.447Z,1002.25
2019-05-19T01:09:47.434Z,1002.21
2019-05-19T01:10:47.428Z,1002.22
2019-05-19T01:11:47.411Z,1002.23
2019-05-19T01:12:47.404Z,1002.25
2019-05-19T01:13:47.390Z,1002.22
2019-05-19T01:14:47.379Z,1002.19
2019-05-19T01:15:47.378Z,1002.21
2019-05-19T01:16:47.358Z,1002.19
2019-05-19T01:17:47.355Z,1002.20
2019-05-19T01:18:47.335Z,1002.23
2019-05-19T01:19:55.607Z,1002.22
2019-05-19T01:20:48.312Z,1002.25
2019-05-19T01:21:47.304Z,1002.23
2019-05-19T01:22:47.293Z,1002.22
2019-05-19T01:23:47.284Z,1002.23
2019-05-19T01:24:47.276Z,1002.19
2019-05-19T01:25:47.261Z,1002.27
2019-05-19T01:26:47.252Z,1002.23
2019-05-19T01:27:47.245Z,1002.26
2019-05-19T01:28:47.233Z,1002.27
2019-05-19T01:29:47.222Z,1002.23
2019-05-19T01:30:47.206Z,1002.23
2019-05-19T01:31:47.195Z,1002.22
2019-05-19T01:32:47.185Z,1002.17
2019-05-19T01:33:47.183Z,1002.22
2019-05-19T01:34:47.165Z,1002.21
2019-05-19T01:35:47.175Z,1002.20
2019-05-19T01:36:47.149Z,1002.22
2019-05-19T01:37:47.131Z,1002.23
2019-05-19T01:38:47.120Z,1002.19
2019-05-19T01:39:47.149Z,1002.23
2019-05-19T01:40:47.097Z,1002.21
2019-05-19T01:41:47.123Z,1002.20
2019-05-19T01:42:47.077Z,1002.18
2019-05-19T01:43:47.146Z,1002.13
2019-05-19T01:44:47.054Z,1002.13
2019-05-19T01:45:47.052Z,1002.12
2019-05-19T01:46:47.032Z,1002.12
2019-05-19T01:47:47.038Z,1002.13
2019-05-19T01:48:47.011Z,1002.11
2019-05-19T01:49:47.002Z,1002.10
2019-05-19T01:50:46.988Z,1002.12
2019-05-19T01:51:46.978Z,1002.11
2019-05-19T01:52:46.969Z,1002.13
2019-05-19T01:53:46.958Z,1002.14
2019-05-19T01:54:46.948Z,1002.12
2019-05-19T01:55:46.935Z,1002.10
2019-05-19T01:56:46.927Z,1002.10
2019-05-19T01:57:46.986Z,1002.15
2019-05-19T01:58:46.904Z,1002.13
2019-05-19T01:59:46.892Z,1002.15
2019-05-19T02:00:46.888Z,1002.11
2019-05-19T02:01:46.950Z,1002.14
2019-05-19T02:02:46.864Z,1002.14
2019-05-19T02:03:46.850Z,1002.12
2019-05-19T02:04:46.849Z,1002.10
2019-05-19T02:05:46.830Z,1002.05
2019-05-19T02:06:46.816Z,1002.09
2019-05-19T02:07:46.810Z,1002.10
2019-05-19T02:08:46.806Z,1002.09
2019-05-19T02:09:46.787Z,1002.06
2019-05-19T02:10:46.781Z,1002.07
2019-05-19T02:11:46.816Z,1002.07
2019-05-19T02:12:46.754Z,1002.06
2019-05-19T02:13:46.743Z,1002.07
2019-05-19T02:14:46.730Z,1002.04
2019-05-19T02:15:46.725Z,1002.01
2019-05-19T02:16:46.709Z,1001.98
2019-05-19T02:17:46.698Z,1002.01
2019-05-19T02:18:46.688Z,1002.01
2019-05-19T02:19:46.687Z,1001.99
2019-05-19T02:20:46.682Z,1001.98
2019-05-19T02:21:46.653Z,1001.97
2019-05-19T02:22:46.644Z,1001.98
2019-05-19T02:23:46.633Z,1001.95
2019-05-19T02:24:46.633Z,1001.93
2019-05-19T02:25:46.611Z,1001.95
2019-05-19T02:26:46.602Z,1001.95
2019-05-19T02:27:46.598Z,1001.96
2019-05-19T02:28:46.585Z,1001.97
2019-05-19T02:29:46.573Z,1001.95
2019-05-19T02:30:46.559Z,1001.96
2019-05-19T02:31:46.549Z,1001.92
2019-05-19T02:32:46.591Z,1001.96
2019-05-19T02:33:46.570Z,1002.00
2019-05-19T02:34:46.515Z,1001.96
2019-05-19T02:35:46.527Z,1001.96
2019-05-19T02:36:46.500Z,1001.96
2019-05-19T02:37:46.486Z,1001.95
2019-05-19T02:38:46.480Z,1001.96
2019-05-19T02:39:46.465Z,1001.98
2019-05-19T02:40:46.454Z,1001.97
2019-05-19T02:41:46.447Z,1001.97
2019-05-19T02:42:46.437Z,1001.99
2019-05-19T02:43:46.440Z,1002.01
2019-05-19T02:44:46.411Z,1002.03
2019-05-19T02:45:46.407Z,1002.03
2019-05-19T02:46:46.413Z,1002.01
2019-05-19T02:47:46.379Z,1002.00
2019-05-19T02:48:46.368Z,1001.97
2019-05-19T02:49:46.359Z,1002.00
2019-05-19T02:50:52.042Z,1002.01
2019-05-19T02:51:47.355Z,1001.97
2019-05-19T02:52:46.325Z,1002.00
2019-05-19T02:53:46.313Z,1001.97
2019-05-19T02:54:46.314Z,1001.97
2019-05-19T02:55:46.293Z,1001.97
2019-05-19T02:56:46.309Z,1001.97
2019-05-19T02:57:46.270Z,1001.96
2019-05-19T02:58:46.260Z,1001.94
2019-05-19T02:59:46.249Z,1001.99
2019-05-19T03:00:46.243Z,1002.01
2019-05-19T03:01:46.228Z,1001.97
2019-05-19T03:02:46.215Z,1002.01
2019-05-19T03:03:46.216Z,1002.03
2019-05-19T03:04:46.193Z,1002.06
2019-05-19T03:05:46.184Z,1002.08
2019-05-19T03:06:46.173Z,1002.10
2019-05-19T03:07:46.169Z,1002.11
2019-05-19T03:08:46.154Z,1002.09
2019-05-19T03:09:46.141Z,1002.09
2019-05-19T03:10:46.134Z,1002.09
2019-05-19T03:11:46.133Z,1002.05
2019-05-19T03:12:46.125Z,1002.03
2019-05-19T03:13:46.097Z,1002.08
2019-05-19T03:14:46.092Z,1002.11
2019-05-19T03:15:46.077Z,1002.03
2019-05-19T03:16:46.075Z,1002.02
2019-05-19T03:17:46.055Z,1002.11
2019-05-19T03:18:46.043Z,1002.13
2019-05-19T03:19:46.060Z,1002.17
2019-05-19T03:20:46.029Z,1002.16
2019-05-19T03:21:46.014Z,1002.14
2019-05-19T03:22:46.000Z,1002.14
2019-05-19T03:23:46.000Z,1002.12
2019-05-19T03:24:45.982Z,1002.17
2019-05-19T03:25:45.990Z,1002.15
2019-05-19T03:26:45.969Z,1002.13
2019-05-19T03:27:45.946Z,1002.18
2019-05-19T03:28:45.938Z,1002.16
2019-05-19T03:29:45.940Z,1002.15
2019-05-19T03:30:45.923Z,1002.17
2019-05-19T03:31:45.922Z,1002.17
2019-05-19T03:32:45.904Z,1002.14
2019-05-19T03:33:45.894Z,1002.12
2019-05-19T03:34:45.874Z,1002.13
2019-05-19T03:35:45.861Z,1002.15
2019-05-19T03:36:45.853Z,1002.13
2019-05-19T03:37:45.840Z,1002.13
2019-05-19T03:38:45.829Z,1002.14
2019-05-19T03:39:45.818Z,1002.17
2019-05-19T03:40:45.805Z,1002.20
2019-05-19T03:41:45.797Z,1002.22
2019-05-19T03:42:45.817Z,1002.20
2019-05-19T03:43:45.789Z,1002.23
2019-05-19T03:44:45.771Z,1002.22
2019-05-19T03:45:45.755Z,1002.23
2019-05-19T03:46:45.746Z,1002.23
2019-05-19T03:47:45.736Z,1002.18
2019-05-19T03:48:45.727Z,1002.21
2019-05-19T03:49:45.710Z,1002.22
2019-05-19T03:50:45.702Z,1002.19
2019-05-19T03:51:45.688Z,1002.16
2019-05-19T03:52:45.691Z,1002.14
2019-05-19T03:53:45.667Z,1002.19
2019-05-19T03:54:45.654Z,1002.17
2019-05-19T03:55:45.645Z,1002.20
2019-05-19T03:56:45.633Z,1002.20
2019-05-19T03:57:45.623Z,1002.23
2019-05-19T03:58:45.615Z,1002.23
2019-05-19T03:59:45.602Z,1002.24
2019-05-19T04:00:45.600Z,1002.23
2019-05-19T04:01:45.580Z,1002.25
2019-05-19T04:02:45.569Z,1002.26
2019-05-19T04:03:45.557Z,1002.24
2019-05-19T04:04:45.553Z,1002.25
2019-05-19T04:05:45.537Z,1002.27
2019-05-19T04:06:45.529Z,1002.27
2019-05-19T04:07:45.518Z,1002.28
2019-05-19T04:08:45.510Z,1002.27
2019-05-19T04:09:45.494Z,1002.24
2019-05-19T04:10:45.482Z,1002.26
2019-05-19T04:11:45.474Z,1002.27
2019-05-19T04:12:45.466Z,1002.28
2019-05-19T04:13:45.449Z,1002.30
2019-05-19T04:14:45.439Z,1002.26
2019-05-19T04:15:45.540Z,1002.24
2019-05-19T04:16:45.418Z,1002.28
2019-05-19T04:17:45.411Z,1002.26
2019-05-19T04:18:45.398Z,1002.23
2019-05-19T04:19:45.387Z,1002.25
2019-05-19T04:20:45.392Z,1002.26
2019-05-19T04:21:49.073Z,1002.27
2019-05-19T04:22:45.352Z,1002.29
2019-05-19T04:23:45.347Z,1002.27
2019-05-19T04:24:45.332Z,1002.28
2019-05-19T04:25:45.323Z,1002.30
2019-05-19T04:26:45.309Z,1002.25
2019-05-19T04:27:45.298Z,1002.23
2019-05-19T04:28:45.305Z,1002.21
2019-05-19T04:29:45.278Z,1002.22
2019-05-19T04:30:45.266Z,1002.23
2019-05-19T04:31:45.259Z,1002.24
2019-05-19T04:32:45.252Z,1002.26
2019-05-19T04:33:45.237Z,1002.23
2019-05-19T04:34:45.221Z,1002.21
2019-05-19T04:35:45.212Z,1002.28
2019-05-19T04:36:45.233Z,1002.23
2019-05-19T04:37:45.193Z,1002.26
2019-05-19T04:38:45.177Z,1002.34
2019-05-19T04:39:45.170Z,1002.35
2019-05-19T04:40:45.163Z,1002.35
2019-05-19T04:41:45.149Z,1002.35
2019-05-19T04:42:45.140Z,1002.31
2019-05-19T04:43:45.125Z,1002.22
2019-05-19T04:44:45.116Z,1002.23
2019-05-19T04:45:45.133Z,1002.16
2019-05-19T04:46:45.108Z,1002.17
2019-05-19T04:47:45.088Z,1002.15
2019-05-19T04:48:45.082Z,1002.19
2019-05-19T04:49:45.059Z,1002.21
2019-05-19T04:50:45.056Z,1002.19
2019-05-19T04:51:45.041Z,1002.19
2019-05-19T04:52:45.027Z,1002.19
2019-05-19T04:53:45.015Z,1002.16
2019-05-19T04:54:45.005Z,1002.17
2019-05-19T04:55:44.993Z,1002.18
2019-05-19T04:56:45.025Z,1002.16
2019-05-19T04:57:44.977Z,1002.15
2019-05-19T04:58:44.965Z,1002.13
2019-05-19T04:59:44.952Z,1002.14
2019-05-19T05:00:44.944Z,1002.18
2019-05-19T05:01:44.951Z,1002.17
2019-05-19T05:02:44.917Z,1002.18
2019-05-19T05:03:44.905Z,1002.19
2019-05-19T05:04:44.894Z,1002.18
2019-05-19T05:05:44.883Z,1002.18
2019-05-19T05:06:44.872Z,1002.17
2019-05-19T05:07:44.865Z,1002.16
2019-05-19T05:08:44.852Z,1002.15
2019-05-19T05:09:44.838Z,1002.14
2019-05-19T05:10:44.829Z,1002.14
2019-05-19T05:11:44.818Z,1002.15
2019-05-19T05:12:44.806Z,1002.17
2019-05-19T05:13:44.793Z,1002.15
2019-05-19T05:14:44.815Z,1002.14
2019-05-19T05:15:44.790Z,1002.16
2019-05-19T05:16:44.759Z,1002.17
2019-05-19T05:17:44.758Z,1002.16
2019-05-19T05:18:47.717Z,1002.16
2019-05-19T05:19:44.725Z,1002.15
2019-05-19T05:20:44.767Z,1002.14
2019-05-19T05:21:44.703Z,1002.15
2019-05-19T05:22:44.695Z,1002.16
2019-05-19T05:23:44.685Z,1002.16
2019-05-19T05:24:44.692Z,1002.15
2019-05-19T05:25:44.673Z,1002.17
2019-05-19T05:26:44.653Z,1002.18
2019-05-19T05:27:44.668Z,1002.18
2019-05-19T05:28:44.684Z,1002.17
2019-05-19T05:29:44.616Z,1002.15
2019-05-19T05:30:44.612Z,1002.18
2019-05-19T05:31:44.596Z,1002.15
2019-05-19T05:32:44.595Z,1002.20
2019-05-19T05:33:44.575Z,1002.17
2019-05-19T05:34:44.568Z,1002.16
2019-05-19T05:35:44.549Z,1002.15
2019-05-19T05:36:44.541Z,1002.20
2019-05-19T05:37:44.538Z,1002.16
2019-05-19T05:38:44.519Z,1002.16
2019-05-19T05:39:44.506Z,1002.17
2019-05-19T05:40:44.497Z,1002.17
2019-05-19T05:41:44.485Z,1002.16
2019-05-19T05:42:44.473Z,1002.13
2019-05-19T05:43:44.461Z,1002.10
2019-05-19T05:44:44.454Z,1002.16
2019-05-19T05:45:44.447Z,1002.12
2019-05-19T05:46:44.429Z,1002.19
2019-05-19T05:47:44.442Z,1002.19
2019-05-19T05:48:44.408Z,1002.17
2019-05-19T05:49:44.412Z,1002.19
2019-05-19T05:50:44.387Z,1002.20
2019-05-19T05:51:44.378Z,1002.18
2019-05-19T05:52:44.363Z,1002.19
2019-05-19T05:53:44.353Z,1002.20
2019-05-19T05:54:44.342Z,1002.21
2019-05-19T05:55:44.332Z,1002.24
2019-05-19T05:56:44.318Z,1002.22
2019-05-19T05:57:44.313Z,1002.22
2019-05-19T05:58:44.298Z,1002.25
2019-05-19T05:59:44.295Z,1002.19
2019-05-19T06:00:44.292Z,1002.17
2019-05-19T06:01:44.268Z,1002.18
2019-05-19T06:02:44.264Z,1002.19
2019-05-19T06:03:44.251Z,1002.20
2019-05-19T06:04:44.232Z,1002.21
2019-05-19T06:05:44.235Z,1002.20
2019-05-19T06:06:45.849Z,1002.18
2019-05-19T06:07:44.197Z,1002.20
2019-05-19T06:08:44.197Z,1002.19
2019-05-19T06:09:44.176Z,1002.17
2019-05-19T06:10:44.284Z,1002.18
2019-05-19T06:11:44.155Z,1002.20
2019-05-19T06:12:44.140Z,1002.21
2019-05-19T06:13:44.145Z,1002.21
2019-05-19T06:14:44.119Z,1002.24
2019-05-19T06:15:44.115Z,1002.22
2019-05-19T06:16:44.098Z,1002.18
2019-05-19T06:17:44.086Z,1002.21
2019-05-19T06:18:44.077Z,1002.21
2019-05-19T06:19:44.064Z,1002.20
2019-05-19T06:20:44.060Z,1002.24
2019-05-19T06:21:44.040Z,1002.22
2019-05-19T06:22:55.863Z,1002.23
2019-05-19T06:23:45.018Z,1002.21
2019-05-19T06:24:44.010Z,1002.21
2019-05-19T06:25:44.006Z,1002.14
2019-05-19T06:26:43.984Z,1002.14
2019-05-19T06:27:43.974Z,1002.14
2019-05-19T06:28:43.963Z,1002.13
2019-05-19T06:29:43.951Z,1002.15
2019-05-19T06:30:43.941Z,1002.14
2019-05-19T06:31:43.934Z,1002.13
2019-05-19T06:32:43.919Z,1002.12
2019-05-19T06:33:43.906Z,1002.10
2019-05-19T06:34:43.896Z,1002.14
2019-05-19T06:35:43.886Z,1002.13
2019-05-19T06:36:43.875Z,1002.11
2019-05-19T06:37:43.866Z,1002.12
2019-05-19T06:38:43.856Z,1002.07
2019-05-19T06:39:43.840Z,1002.11
2019-05-19T06:40:43.834Z,1002.10
2019-05-19T06:41:43.822Z,1002.13
2019-05-19T06:42:43.847Z,1002.16
2019-05-19T06:43:43.836Z,1002.14
2019-05-19T06:44:43.788Z,1002.15
2019-05-19T06:45:43.790Z,1002.17
2019-05-19T06:46:43.789Z,1002.16
2019-05-19T06:47:43.759Z,1002.16
2019-05-19T06:48:43.744Z,1002.16
2019-05-19T06:49:43.731Z,1002.14
2019-05-19T06:50:43.720Z,1002.13
2019-05-19T06:51:43.711Z,1002.12
2019-05-19T06:52:43.698Z,1002.11
2019-05-19T06:53:43.690Z,1002.13
2019-05-19T06:54:43.676Z,1002.08
2019-05-19T06:55:43.665Z,1002.08
2019-05-19T06:56:43.654Z,1002.07
2019-05-19T06:57:43.656Z,1002.08
2019-05-19T06:58:43.631Z,1002.09
2019-05-19T06:59:43.621Z,1002.08
2019-05-19T07:00:43.610Z,1002.05
2019-05-19T07:01:43.599Z,1002.06
2019-05-19T07:02:43.590Z,1002.07
2019-05-19T07:03:43.577Z,1002.02
2019-05-19T07:04:43.582Z,1002.05
2019-05-19T07:05:43.557Z,1002.05
2019-05-19T07:06:43.587Z,1002.02
2019-05-19T07:07:43.559Z,1002.02
2019-05-19T07:08:43.527Z,1002.05
2019-05-19T07:09:57.551Z,1002.03
2019-05-19T07:10:44.500Z,1002.07
2019-05-19T07:11:43.492Z,1002.02
2019-05-19T07:12:43.482Z,1002.02
2019-05-19T07:13:43.478Z,1002.02
2019-05-19T07:14:43.470Z,1002.02
2019-05-19T07:15:43.450Z,1002.02
2019-05-19T07:16:43.443Z,1002.01
2019-05-19T07:17:43.436Z,1001.99
2019-05-19T07:18:43.418Z,1002.00
2019-05-19T07:19:43.413Z,1002.00
2019-05-19T07:20:43.391Z,1002.02
2019-05-19T07:21:43.385Z,1002.00
2019-05-19T07:22:43.436Z,1002.03
2019-05-19T07:23:43.362Z,1002.03
2019-05-19T07:24:43.348Z,1002.06
2019-05-19T07:25:43.341Z,1002.04
2019-05-19T07:26:43.326Z,1002.06
2019-05-19T07:27:43.314Z,1002.04
2019-05-19T07:28:43.308Z,1002.02
2019-05-19T07:29:43.293Z,1002.03
2019-05-19T07:30:43.281Z,1002.10
2019-05-19T07:31:43.269Z,1002.04
2019-05-19T07:32:43.260Z,1002.05
2019-05-19T07:33:43.253Z,1002.02
2019-05-19T07:34:43.240Z,1001.99
2019-05-19T07:35:43.231Z,1002.05
2019-05-19T07:36:43.215Z,1001.99
2019-05-19T07:37:43.203Z,1002.01
2019-05-19T07:38:43.194Z,1001.97
2019-05-19T07:39:43.193Z,1001.90
2019-05-19T07:40:43.173Z,1001.87
2019-05-19T07:41:43.166Z,1001.88
2019-05-19T07:42:43.187Z,1001.90
2019-05-19T07:43:43.138Z,1001.90
2019-05-19T07:44:45.309Z,1001.90
2019-05-19T07:45:43.142Z,1001.90
2019-05-19T07:46:43.132Z,1001.88
2019-05-19T07:47:43.095Z,1001.86
2019-05-19T07:48:43.083Z,1001.89
2019-05-19T07:49:43.076Z,1001.85
2019-05-19T07:50:43.062Z,1001.85
2019-05-19T07:51:43.071Z,1001.84
2019-05-19T07:52:43.052Z,1001.85
2019-05-19T07:53:43.485Z,1001.83
2019-05-19T07:54:43.019Z,1001.87
2019-05-19T07:55:43.009Z,1001.84
2019-05-19T07:56:43.018Z,1001.84
2019-05-19T07:57:43.014Z,1001.86
2019-05-19T07:58:42.980Z,1001.80
2019-05-19T07:59:42.970Z,1001.81
2019-05-19T08:00:42.996Z,1001.79
2019-05-19T08:01:42.944Z,1001.79
2019-05-19T08:02:42.977Z,1001.80
2019-05-19T08:03:42.922Z,1001.80
2019-05-19T08:04:42.914Z,1001.81
2019-05-19T08:05:42.901Z,1001.77
2019-05-19T08:06:42.892Z,1001.83
2019-05-19T08:07:42.881Z,1001.78
2019-05-19T08:08:42.871Z,1001.81
2019-05-19T08:09:42.859Z,1001.82
2019-05-19T08:10:42.875Z,1001.88
2019-05-19T08:11:42.855Z,1001.84
2019-05-19T08:12:42.831Z,1001.80
2019-05-19T08:13:42.820Z,1001.82
2019-05-19T08:14:42.808Z,1001.80
2019-05-19T08:15:42.793Z,1001.83
2019-05-19T08:16:42.786Z,1001.82
2019-05-19T08:17:42.776Z,1001.89
2019-05-19T08:18:42.791Z,1001.88
2019-05-19T08:19:42.756Z,1001.82
2019-05-19T08:20:42.740Z,1001.89
2019-05-19T08:21:42.731Z,1001.85
2019-05-19T08:22:42.731Z,1001.89
2019-05-19T08:23:58.591Z,1001.93
2019-05-19T08:24:43.697Z,1001.96
2019-05-19T08:25:42.686Z,1001.96
2019-05-19T08:26:42.700Z,1001.97
2019-05-19T08:27:42.664Z,1002.00
2019-05-19T08:28:42.659Z,1002.00
2019-05-19T08:29:42.644Z,1001.98
2019-05-19T08:30:42.633Z,1002.00
2019-05-19T08:31:42.627Z,1001.91
2019-05-19T08:32:42.611Z,1001.95
2019-05-19T08:33:42.614Z,1001.93
2019-05-19T08:34:42.591Z,1001.91
2019-05-19T08:35:42.590Z,1002.00
2019-05-19T08:36:42.594Z,1001.95
2019-05-19T08:37:42.559Z,1001.97
2019-05-19T08:38:42.544Z,1001.97
2019-05-19T08:39:42.539Z,1001.92
2019-05-19T08:40:42.557Z,1001.87
2019-05-19T08:41:42.515Z,1001.91
2019-05-19T08:42:42.504Z,1001.91
2019-05-19T08:43:42.491Z,1001.95
2019-05-19T08:44:42.481Z,1001.84
2019-05-19T08:45:42.605Z,1001.83
2019-05-19T08:46:42.457Z,1001.76
2019-05-19T08:47:42.459Z,1001.73
2019-05-19T08:48:43.120Z,1001.72
2019-05-19T08:49:42.457Z,1001.72
2019-05-19T08:50:42.736Z,1001.71
2019-05-19T08:51:42.917Z,1001.71
2019-05-19T08:52:42.394Z,1001.61
2019-05-19T08:53:42.395Z,1001.66
2019-05-19T08:54:42.372Z,1001.64
2019-05-19T08:55:42.642Z,1001.71
2019-05-19T08:56:42.354Z,1001.64
2019-05-19T08:57:42.649Z,1001.64
2019-05-19T08:58:42.330Z,1001.69
2019-05-19T08:59:42.321Z,1001.71
2019-05-19T09:00:42.325Z,1001.67
2019-05-19T09:01:42.296Z,1001.60
2019-05-19T09:02:42.457Z,1001.64
2019-05-19T09:03:42.281Z,1001.61
2019-05-19T09:04:42.266Z,1001.64
2019-05-19T09:05:42.254Z,1001.62
2019-05-19T09:06:42.243Z,1001.63
2019-05-19T09:07:42.260Z,1001.59
2019-05-19T09:08:42.564Z,1001.62
2019-05-19T09:09:42.214Z,1001.65
2019-05-19T09:10:42.444Z,1001.64
2019-05-19T09:11:42.188Z,1001.63
2019-05-19T09:12:42.188Z,1001.60
2019-05-19T09:13:42.169Z,1001.61
2019-05-19T09:14:42.164Z,1001.60
2019-05-19T09:15:42.220Z,1001.62
2019-05-19T09:16:42.141Z,1001.57
2019-05-19T09:17:42.353Z,1001.53
2019-05-19T09:18:42.118Z,1001.56
2019-05-19T09:19:42.101Z,1001.53
2019-05-19T09:20:42.093Z,1001.50
2019-05-19T09:21:42.114Z,1001.56
2019-05-19T09:22:42.312Z,1001.53
2019-05-19T09:23:42.061Z,1001.50
2019-05-19T09:24:42.050Z,1001.51
2019-05-19T09:25:42.038Z,1001.53
2019-05-19T09:26:42.028Z,1001.51
2019-05-19T09:27:42.021Z,1001.51
2019-05-19T09:28:42.004Z,1001.49
2019-05-19T09:29:41.994Z,1001.44
2019-05-19T09:30:41.982Z,1001.47
2019-05-19T09:31:41.971Z,1001.42
2019-05-19T09:32:41.962Z,1001.42
2019-05-19T09:33:41.949Z,1001.38
2019-05-19T09:34:41.940Z,1001.34
2019-05-19T09:35:41.931Z,1001.35
2019-05-19T09:36:41.918Z,1001.37
2019-05-19T09:37:41.905Z,1001.29
2019-05-19T09:38:41.905Z,1001.26
2019-05-19T09:39:41.886Z,1001.33
2019-05-19T09:40:41.881Z,1001.34
2019-05-19T09:41:41.864Z,1001.30
2019-05-19T09:42:41.858Z,1001.26
2019-05-19T09:43:41.843Z,1001.20
2019-05-19T09:44:41.834Z,1001.28
2019-05-19T09:45:41.826Z,1001.27
2019-05-19T09:46:41.809Z,1001.22
2019-05-19T09:47:41.800Z,1001.21
2019-05-19T09:48:41.789Z,1001.22
2019-05-19T09:49:41.778Z,1001.23
2019-05-19T09:50:41.768Z,1001.26
2019-05-19T09:51:41.845Z,1001.17
2019-05-19T09:52:41.812Z,1001.15
2019-05-19T09:53:41.745Z,1001.11
2019-05-19T09:54:45.068Z,1001.25
2019-05-19T09:55:41.719Z,1001.22
2019-05-19T09:56:41.703Z,1001.18
2019-05-19T09:57:41.697Z,1001.13
2019-05-19T09:58:41.722Z,1001.17
2019-05-19T09:59:41.675Z,1001.15
2019-05-19T10:00:41.670Z,1001.18
2019-05-19T10:01:41.650Z,1001.15
2019-05-19T10:02:41.638Z,1001.13
2019-05-19T10:03:41.634Z,1001.08
2019-05-19T10:04:41.620Z,1001.08
2019-05-19T10:05:41.609Z,1001.11
2019-05-19T10:06:41.649Z,1001.13
2019-05-19T10:07:41.589Z,1001.10
2019-05-19T10:08:41.575Z,1001.06
2019-05-19T10:09:41.564Z,1001.02
2019-05-19T10:10:41.556Z,1001.08
2019-05-19T10:11:41.553Z,1001.11
2019-05-19T10:12:41.533Z,1001.07
2019-05-19T10:13:41.555Z,1001.06
2019-05-19T10:14:41.511Z,1001.03
2019-05-19T10:15:41.500Z,1001.01
2019-05-19T10:16:41.490Z,1001.00
2019-05-19T10:17:41.478Z,1000.97
2019-05-19T10:18:41.542Z,1001.00
2019-05-19T10:19:41.600Z,1000.97
2019-05-19T10:20:41.457Z,1000.97
2019-05-19T10:21:41.488Z,1001.00
2019-05-19T10:22:41.427Z,1000.99
2019-05-19T10:23:41.414Z,1001.01
2019-05-19T10:24:57.505Z,1001.00
2019-05-19T10:25:42.393Z,1001.03
2019-05-19T10:26:41.400Z,1000.98
2019-05-19T10:27:41.386Z,1000.95
2019-05-19T10:28:41.363Z,1001.00
2019-05-19T10:29:41.351Z,1001.02
2019-05-19T10:30:41.343Z,1001.00
2019-05-19T10:31:41.336Z,1000.96
2019-05-19T10:32:41.327Z,1000.90
2019-05-19T10:33:41.307Z,1000.89
2019-05-19T10:34:41.296Z,1000.88
2019-05-19T10:35:41.295Z,1000.86
2019-05-19T10:36:41.303Z,1000.96
2019-05-19T10:37:41.266Z,1000.91
2019-05-19T10:38:41.260Z,1000.96
2019-05-19T10:39:41.243Z,1000.99
2019-05-19T10:40:41.273Z,1000.96
2019-05-19T10:41:41.224Z,1000.87
2019-05-19T10:42:41.213Z,1000.89
2019-05-19T10:43:41.251Z,1000.92
2019-05-19T10:44:41.190Z,1000.97
2019-05-19T10:45:41.178Z,1000.96
2019-05-19T10:46:41.171Z,1000.92
2019-05-19T10:47:41.173Z,1000.92
2019-05-19T10:48:41.151Z,1000.89
2019-05-19T10:49:42.989Z,1000.89
2019-05-19T10:50:41.133Z,1000.91
2019-05-19T10:51:41.114Z,1000.90
2019-05-19T10:52:41.109Z,1000.82
2019-05-19T10:53:41.243Z,1000.88
2019-05-19T10:54:41.090Z,1000.88
2019-05-19T10:55:41.075Z,1000.88
2019-05-19T10:56:41.062Z,1000.84
2019-05-19T10:57:41.050Z,1000.89
2019-05-19T10:58:42.766Z,1000.86
2019-05-19T10:59:41.283Z,1000.84
2019-05-19T11:00:41.046Z,1000.85
2019-05-19T11:01:41.013Z,1000.87
2019-05-19T11:02:41.001Z,1000.87
2019-05-19T11:03:40.991Z,1000.85
2019-05-19T11:04:40.977Z,1000.83
2019-05-19T11:05:40.979Z,1000.89
2019-05-19T11:06:41.469Z,1000.86
2019-05-19T11:07:40.951Z,1000.85
2019-05-19T11:08:40.936Z,1000.84
2019-05-19T11:09:40.931Z,1000.79
2019-05-19T11:10:40.916Z,1000.78
2019-05-19T11:11:40.911Z,1000.75
2019-05-19T11:12:40.892Z,1000.76
2019-05-19T11:13:40.879Z,1000.84
2019-05-19T11:14:40.868Z,1000.82
2019-05-19T11:15:40.858Z,1000.81
2019-05-19T11:16:40.846Z,1000.75
2019-05-19T11:17:40.837Z,1000.76
2019-05-19T11:18:40.826Z,1000.71
2019-05-19T11:19:41.038Z,1000.70
2019-05-19T11:20:40.808Z,1000.70
2019-05-19T11:21:40.794Z,1000.73
2019-05-19T11:22:40.801Z,1000.72
2019-05-19T11:23:40.777Z,1000.71
2019-05-19T11:24:40.762Z,1000.68
2019-05-19T11:25:51.031Z,1000.64
2019-05-19T11:26:41.740Z,1000.65
2019-05-19T11:27:40.730Z,1000.66
2019-05-19T11:28:40.721Z,1000.63
2019-05-19T11:29:40.710Z,1000.65
2019-05-19T11:30:40.701Z,1000.56
2019-05-19T11:31:40.687Z,1000.57
2019-05-19T11:32:40.677Z,1000.56
2019-05-19T11:33:40.672Z,1000.69
2019-05-19T11:34:40.655Z,1000.66
2019-05-19T11:35:40.648Z,1000.61
2019-05-19T11:36:40.634Z,1000.55
2019-05-19T11:37:40.623Z,1000.58
2019-05-19T11:38:40.615Z,1000.63
2019-05-19T11:39:40.605Z,1000.62
2019-05-19T11:40:40.592Z,1000.64
2019-05-19T11:41:40.584Z,1000.60
2019-05-19T11:42:40.569Z,1000.65
2019-05-19T11:43:40.558Z,1000.61
2019-05-19T11:44:40.653Z,1000.57
2019-05-19T11:45:40.563Z,1000.53
2019-05-19T11:46:40.567Z,1000.52
2019-05-19T11:47:40.530Z,1000.54
2019-05-19T11:48:40.504Z,1000.55
2019-05-19T11:49:40.492Z,1000.44
2019-05-19T11:50:42.172Z,1000.45
2019-05-19T11:51:40.478Z,1000.41
2019-05-19T11:52:40.461Z,1000.44
2019-05-19T11:53:40.451Z,1000.41
2019-05-19T11:54:40.438Z,1000.40
2019-05-19T11:55:40.433Z,1000.41
2019-05-19T11:56:40.449Z,1000.48
2019-05-19T11:57:40.415Z,1000.43
2019-05-19T11:58:40.441Z,1000.42
2019-05-19T11:59:40.384Z,1000.44
2019-05-19T12:00:40.377Z,1000.41
2019-05-19T12:01:40.367Z,1000.40
2019-05-19T12:02:40.352Z,1000.41
2019-05-19T12:03:40.343Z,1000.37
2019-05-19T12:04:40.334Z,1000.42
2019-05-19T12:05:40.319Z,1000.43